sensor_id;sensor_type;location;lat;lon;timestamp;temperature;humidity
2849;DHT22;59355;52.416;13.412;2022-07-04T00:00:44;21.40;99.90
2849;DHT22;59355;52.416;13.412;2022-07-04T00:03:10;21.40;99.90
2849;DHT22;59355;52.416;13.412;2022-07-04T00:05:36;21.40;99.90
2849;DHT22;59355;52.416;13.412;2022-07-04T00:08:02;21.40;99.90
2849;DHT22;59355;52.416;13.412;2022-07-04T00:10:28;21.30;99.90
2849;DHT22;59355;52.416;13.412;2022-07-04T00:12:54;21.30;99.90
2849;DHT22;59355;52.416;13.412;2022-07-04T00:15:21;21.30;99.90
2849;DHT22;59355;52.416;13.412;2022-07-04T00:17:47;21.30;99.90
2849;DHT22;59355;52.416;13.412;2022-07-04T00:20:13;21.20;99.90
2849;DHT22;59355;52.416;13.412;2022-07-04T00:22:39;21.20;99.90
2849;DHT22;59355;52.416;13.412;2022-07-04T00:25:05;21.10;99.90
2849;DHT22;59355;52.416;13.412;2022-07-04T00:27:32;21.10;99.90
2849;DHT22;59355;52.416;13.412;2022-07-04T00:29:58;21.00;99.90
2849;DHT22;59355;52.416;13.412;2022-07-04T00:32:24;21.00;99.90
2849;DHT22;59355;52.416;13.412;2022-07-04T00:34:50;20.90;99.90
2849;DHT22;59355;52.416;13.412;2022-07-04T00:37:16;20.90;99.90
2849;DHT22;59355;52.416;13.412;2022-07-04T00:39:42;20.90;99.90
2849;DHT22;59355;52.416;13.412;2022-07-04T00:42:09;20.90;99.90
2849;DHT22;59355;52.416;13.412;2022-07-04T00:44:35;20.80;99.90
2849;DHT22;59355;52.416;13.412;2022-07-04T00:47:04;20.80;99.90
2849;DHT22;59355;52.416;13.412;2022-07-04T00:49:31;20.80;99.90
2849;DHT22;59355;52.416;13.412;2022-07-04T00:51:57;20.80;99.90
2849;DHT22;59355;52.416;13.412;2022-07-04T00:54:29;20.80;99.90
2849;DHT22;59355;52.416;13.412;2022-07-04T00:56:56;20.70;99.90
2849;DHT22;59355;52.416;13.412;2022-07-04T00:59:22;20.70;99.90
2849;DHT22;59355;52.416;13.412;2022-07-04T01:01:49;20.70;99.90
2849;DHT22;59355;52.416;13.412;2022-07-04T01:04:16;20.60;99.90
2849;DHT22;59355;52.416;13.412;2022-07-04T01:06:43;20.60;99.90
2849;DHT22;59355;52.416;13.412;2022-07-04T01:09:11;20.60;99.90
2849;DHT22;59355;52.416;13.412;2022-07-04T01:11:38;20.50;99.90
2849;DHT22;59355;52.416;13.412;2022-07-04T01:14:04;20.40;99.90
2849;DHT22;59355;52.416;13.412;2022-07-04T01:16:32;20.40;99.90
2849;DHT22;59355;52.416;13.412;2022-07-04T01:18:59;20.40;99.90
2849;DHT22;59355;52.416;13.412;2022-07-04T01:21:25;20.40;99.90
2849;DHT22;59355;52.416;13.412;2022-07-04T01:23:51;20.30;99.90
2849;DHT22;59355;52.416;13.412;2022-07-04T01:26:17;20.30;99.90
2849;DHT22;59355;52.416;13.412;2022-07-04T01:28:44;20.30;99.90
2849;DHT22;59355;52.416;13.412;2022-07-04T01:31:10;20.20;99.90
2849;DHT22;59355;52.416;13.412;2022-07-04T01:33:37;20.20;99.90
2849;DHT22;59355;52.416;13.412;2022-07-04T01:36:03;20.10;99.90
2849;DHT22;59355;52.416;13.412;2022-07-04T01:38:29;20.10;99.90
2849;DHT22;59355;52.416;13.412;2022-07-04T01:40:55;20.00;99.90
2849;DHT22;59355;52.416;13.412;2022-07-04T01:43:21;20.00;99.90
2849;DHT22;59355;52.416;13.412;2022-07-04T01:45:47;19.90;99.90
2849;DHT22;59355;52.416;13.412;2022-07-04T01:48:14;19.90;99.90
2849;DHT22;59355;52.416;13.412;2022-07-04T01:50:40;19.80;99.90
2849;DHT22;59355;52.416;13.412;2022-07-04T01:53:06;19.70;99.90
2849;DHT22;59355;52.416;13.412;2022-07-04T01:55:32;19.70;99.90
2849;DHT22;59355;52.416;13.412;2022-07-04T01:57:59;19.70;99.90
2849;DHT22;59355;52.416;13.412;2022-07-04T02:00:26;19.60;99.90
2849;DHT22;59355;52.416;13.412;2022-07-04T02:03:11;19.60;99.90
2849;DHT22;59355;52.416;13.412;2022-07-04T02:05:37;19.50;99.90
2849;DHT22;59355;52.416;13.412;2022-07-04T02:08:07;19.50;99.90
2849;DHT22;59355;52.416;13.412;2022-07-04T02:10:36;19.40;99.90
2849;DHT22;59355;52.416;13.412;2022-07-04T02:13:02;19.30;99.90
2849;DHT22;59355;52.416;13.412;2022-07-04T02:15:34;19.30;99.90
2849;DHT22;59355;52.416;13.412;2022-07-04T02:18:02;19.20;99.90
2849;DHT22;59355;52.416;13.412;2022-07-04T02:20:29;19.20;99.90
2849;DHT22;59355;52.416;13.412;2022-07-04T02:22:55;19.10;99.90
2849;DHT22;59355;52.416;13.412;2022-07-04T02:25:23;19.00;99.90
2849;DHT22;59355;52.416;13.412;2022-07-04T02:27:49;18.90;99.90
2849;DHT22;59355;52.416;13.412;2022-07-04T02:30:15;18.80;99.90
2849;DHT22;59355;52.416;13.412;2022-07-04T02:32:42;18.80;99.90
2849;DHT22;59355;52.416;13.412;2022-07-04T02:35:08;18.70;99.90
2849;DHT22;59355;52.416;13.412;2022-07-04T02:37:35;18.60;99.90
2849;DHT22;59355;52.416;13.412;2022-07-04T02:40:01;18.60;99.90
2849;DHT22;59355;52.416;13.412;2022-07-04T02:42:31;18.50;99.90
2849;DHT22;59355;52.416;13.412;2022-07-04T02:44:58;18.40;99.90
2849;DHT22;59355;52.416;13.412;2022-07-04T02:47:24;18.40;99.90
2849;DHT22;59355;52.416;13.412;2022-07-04T02:49:50;18.40;99.90
2849;DHT22;59355;52.416;13.412;2022-07-04T02:52:16;18.30;99.90
2849;DHT22;59355;52.416;13.412;2022-07-04T02:54:42;18.20;99.90
2849;DHT22;59355;52.416;13.412;2022-07-04T02:57:08;18.20;99.90
2849;DHT22;59355;52.416;13.412;2022-07-04T02:59:34;18.20;99.90
2849;DHT22;59355;52.416;13.412;2022-07-04T03:02:01;18.10;99.90
2849;DHT22;59355;52.416;13.412;2022-07-04T03:04:27;18.10;99.90
2849;DHT22;59355;52.416;13.412;2022-07-04T03:06:53;18.10;99.90
2849;DHT22;59355;52.416;13.412;2022-07-04T03:09:19;18.10;99.90
2849;DHT22;59355;52.416;13.412;2022-07-04T03:11:45;18.20;99.90
2849;DHT22;59355;52.416;13.412;2022-07-04T03:14:11;18.10;99.90
2849;DHT22;59355;52.416;13.412;2022-07-04T03:16:37;18.10;99.90
2849;DHT22;59355;52.416;13.412;2022-07-04T03:19:04;18.10;99.90
2849;DHT22;59355;52.416;13.412;2022-07-04T03:21:30;18.10;99.90
2849;DHT22;59355;52.416;13.412;2022-07-04T03:23:56;18.10;99.90
2849;DHT22;59355;52.416;13.412;2022-07-04T03:26:26;18.00;99.90
2849;DHT22;59355;52.416;13.412;2022-07-04T03:28:53;18.10;99.90
2849;DHT22;59355;52.416;13.412;2022-07-04T03:31:19;18.00;99.90
2849;DHT22;59355;52.416;13.412;2022-07-04T03:33:45;18.00;99.90
2849;DHT22;59355;52.416;13.412;2022-07-04T03:36:11;18.10;99.90
2849;DHT22;59355;52.416;13.412;2022-07-04T03:38:37;18.10;99.90
2849;DHT22;59355;52.416;13.412;2022-07-04T03:41:03;18.20;99.90
2849;DHT22;59355;52.416;13.412;2022-07-04T03:43:29;18.20;99.90
2849;DHT22;59355;52.416;13.412;2022-07-04T03:45:55;18.20;99.90
2849;DHT22;59355;52.416;13.412;2022-07-04T03:48:21;18.30;99.90
2849;DHT22;59355;52.416;13.412;2022-07-04T03:50:47;18.50;99.90
2849;DHT22;59355;52.416;13.412;2022-07-04T03:53:14;18.60;99.90
2849;DHT22;59355;52.416;13.412;2022-07-04T03:55:42;18.40;99.90
2849;DHT22;59355;52.416;13.412;2022-07-04T03:58:08;18.50;99.90
2849;DHT22;59355;52.416;13.412;2022-07-04T04:00:34;18.50;99.90
2849;DHT22;59355;52.416;13.412;2022-07-04T04:03:01;18.50;99.90
2849;DHT22;59355;52.416;13.412;2022-07-04T04:05:27;18.50;99.90
2849;DHT22;59355;52.416;13.412;2022-07-04T04:07:58;18.40;99.90
2849;DHT22;59355;52.416;13.412;2022-07-04T04:10:26;18.50;99.90
2849;DHT22;59355;52.416;13.412;2022-07-04T04:12:52;18.50;99.90
2849;DHT22;59355;52.416;13.412;2022-07-04T04:15:18;18.50;99.90
2849;DHT22;59355;52.416;13.412;2022-07-04T04:17:44;18.50;99.90
2849;DHT22;59355;52.416;13.412;2022-07-04T04:20:10;18.50;99.90
2849;DHT22;59355;52.416;13.412;2022-07-04T04:22:36;18.50;99.90
2849;DHT22;59355;52.416;13.412;2022-07-04T04:25:03;18.50;99.90
2849;DHT22;59355;52.416;13.412;2022-07-04T04:27:29;18.60;99.90
2849;DHT22;59355;52.416;13.412;2022-07-04T04:29:55;18.60;99.90
2849;DHT22;59355;52.416;13.412;2022-07-04T04:32:21;18.60;99.90
2849;DHT22;59355;52.416;13.412;2022-07-04T04:34:47;18.60;99.90
2849;DHT22;59355;52.416;13.412;2022-07-04T04:37:13;18.60;99.90
2849;DHT22;59355;52.416;13.412;2022-07-04T04:39:39;18.60;99.90
2849;DHT22;59355;52.416;13.412;2022-07-04T04:42:06;18.70;99.90
2849;DHT22;59355;52.416;13.412;2022-07-04T04:44:32;18.70;99.90
2849;DHT22;59355;52.416;13.412;2022-07-04T04:46:58;18.70;99.90
2849;DHT22;59355;52.416;13.412;2022-07-04T04:49:24;18.50;99.90
2849;DHT22;59355;52.416;13.412;2022-07-04T04:51:50;18.50;99.90
2849;DHT22;59355;52.416;13.412;2022-07-04T04:54:16;18.60;99.90
2849;DHT22;59355;52.416;13.412;2022-07-04T04:56:42;18.70;99.90
2849;DHT22;59355;52.416;13.412;2022-07-04T04:59:08;18.70;99.90
2849;DHT22;59355;52.416;13.412;2022-07-04T05:01:35;18.70;99.90
2849;DHT22;59355;52.416;13.412;2022-07-04T05:04:01;18.70;99.90
2849;DHT22;59355;52.416;13.412;2022-07-04T05:06:28;18.80;99.90
2849;DHT22;59355;52.416;13.412;2022-07-04T05:08:54;18.90;99.90
2849;DHT22;59355;52.416;13.412;2022-07-04T05:11:20;18.90;99.90
2849;DHT22;59355;52.416;13.412;2022-07-04T05:13:46;19.00;99.90
2849;DHT22;59355;52.416;13.412;2022-07-04T05:16:12;19.10;99.90
2849;DHT22;59355;52.416;13.412;2022-07-04T05:18:38;19.20;99.90
2849;DHT22;59355;52.416;13.412;2022-07-04T05:21:04;19.30;99.90
2849;DHT22;59355;52.416;13.412;2022-07-04T05:23:30;19.50;99.90
2849;DHT22;59355;52.416;13.412;2022-07-04T05:25:56;19.60;99.90
2849;DHT22;59355;52.416;13.412;2022-07-04T05:28:22;19.60;99.90
2849;DHT22;59355;52.416;13.412;2022-07-04T05:30:48;19.40;99.90
2849;DHT22;59355;52.416;13.412;2022-07-04T05:33:15;19.30;99.90
2849;DHT22;59355;52.416;13.412;2022-07-04T05:35:41;19.20;99.90
2849;DHT22;59355;52.416;13.412;2022-07-04T05:38:07;19.00;99.90
2849;DHT22;59355;52.416;13.412;2022-07-04T05:40:33;19.20;99.90
2849;DHT22;59355;52.416;13.412;2022-07-04T05:42:59;19.20;99.90
2849;DHT22;59355;52.416;13.412;2022-07-04T05:45:25;19.10;99.90
2849;DHT22;59355;52.416;13.412;2022-07-04T05:47:52;19.10;99.90
2849;DHT22;59355;52.416;13.412;2022-07-04T05:50:18;19.10;99.90
2849;DHT22;59355;52.416;13.412;2022-07-04T05:52:44;19.20;99.90
2849;DHT22;59355;52.416;13.412;2022-07-04T05:55:10;19.20;99.90
2849;DHT22;59355;52.416;13.412;2022-07-04T05:57:36;19.20;99.90
2849;DHT22;59355;52.416;13.412;2022-07-04T06:00:03;19.20;99.90
2849;DHT22;59355;52.416;13.412;2022-07-04T06:02:29;19.10;99.90
2849;DHT22;59355;52.416;13.412;2022-07-04T06:04:55;19.00;99.90
2849;DHT22;59355;52.416;13.412;2022-07-04T06:07:21;19.00;99.90
2849;DHT22;59355;52.416;13.412;2022-07-04T06:09:48;19.00;99.90
2849;DHT22;59355;52.416;13.412;2022-07-04T06:12:14;19.00;99.90
2849;DHT22;59355;52.416;13.412;2022-07-04T06:14:40;19.10;99.90
2849;DHT22;59355;52.416;13.412;2022-07-04T06:17:06;19.00;99.90
2849;DHT22;59355;52.416;13.412;2022-07-04T06:19:32;19.10;99.90
2849;DHT22;59355;52.416;13.412;2022-07-04T06:21:58;19.10;99.90
2849;DHT22;59355;52.416;13.412;2022-07-04T06:24:24;19.20;99.90
2849;DHT22;59355;52.416;13.412;2022-07-04T06:26:50;19.30;99.90
2849;DHT22;59355;52.416;13.412;2022-07-04T06:29:16;19.40;99.90
2849;DHT22;59355;52.416;13.412;2022-07-04T06:31:42;19.40;99.90
2849;DHT22;59355;52.416;13.412;2022-07-04T06:34:08;19.40;99.90
2849;DHT22;59355;52.416;13.412;2022-07-04T06:36:52;19.50;99.90
2849;DHT22;59355;52.416;13.412;2022-07-04T06:39:19;19.70;99.90
2849;DHT22;59355;52.416;13.412;2022-07-04T06:41:45;19.70;99.90
2849;DHT22;59355;52.416;13.412;2022-07-04T06:44:11;19.70;99.90
2849;DHT22;59355;52.416;13.412;2022-07-04T06:46:37;19.70;99.90
2849;DHT22;59355;52.416;13.412;2022-07-04T06:49:03;19.70;99.90
2849;DHT22;59355;52.416;13.412;2022-07-04T06:51:29;19.70;99.90
2849;DHT22;59355;52.416;13.412;2022-07-04T06:53:55;19.70;99.90
2849;DHT22;59355;52.416;13.412;2022-07-04T06:56:21;19.90;99.90
2849;DHT22;59355;52.416;13.412;2022-07-04T06:58:47;20.10;99.90
2849;DHT22;59355;52.416;13.412;2022-07-04T07:01:15;20.00;99.90
2849;DHT22;59355;52.416;13.412;2022-07-04T07:03:41;19.80;99.90
2849;DHT22;59355;52.416;13.412;2022-07-04T07:06:07;19.80;99.90
2849;DHT22;59355;52.416;13.412;2022-07-04T07:08:33;19.80;99.90
2849;DHT22;59355;52.416;13.412;2022-07-04T07:11:00;19.80;99.90
2849;DHT22;59355;52.416;13.412;2022-07-04T07:13:40;19.90;99.90
2849;DHT22;59355;52.416;13.412;2022-07-04T07:16:06;20.00;99.90
2849;DHT22;59355;52.416;13.412;2022-07-04T07:18:32;20.00;99.90
2849;DHT22;59355;52.416;13.412;2022-07-04T07:20:58;20.00;99.90
2849;DHT22;59355;52.416;13.412;2022-07-04T07:23:24;20.20;99.90
2849;DHT22;59355;52.416;13.412;2022-07-04T07:25:50;20.20;99.90
2849;DHT22;59355;52.416;13.412;2022-07-04T07:28:16;20.20;99.90
2849;DHT22;59355;52.416;13.412;2022-07-04T07:30:44;20.20;99.90
2849;DHT22;59355;52.416;13.412;2022-07-04T07:33:10;20.30;99.90
2849;DHT22;59355;52.416;13.412;2022-07-04T07:35:37;20.30;99.90
2849;DHT22;59355;52.416;13.412;2022-07-04T07:38:03;20.30;99.90
2849;DHT22;59355;52.416;13.412;2022-07-04T07:40:29;20.50;99.90
2849;DHT22;59355;52.416;13.412;2022-07-04T07:42:55;20.80;99.90
2849;DHT22;59355;52.416;13.412;2022-07-04T07:45:22;21.10;99.90
2849;DHT22;59355;52.416;13.412;2022-07-04T07:47:48;21.30;99.90
2849;DHT22;59355;52.416;13.412;2022-07-04T07:50:14;21.30;99.90
2849;DHT22;59355;52.416;13.412;2022-07-04T07:52:40;21.30;99.90
2849;DHT22;59355;52.416;13.412;2022-07-04T07:55:07;21.50;99.90
2849;DHT22;59355;52.416;13.412;2022-07-04T07:57:34;21.70;99.90
2849;DHT22;59355;52.416;13.412;2022-07-04T08:00:00;21.80;99.90
2849;DHT22;59355;52.416;13.412;2022-07-04T08:02:26;21.50;99.90
2849;DHT22;59355;52.416;13.412;2022-07-04T08:05:11;21.30;99.90
2849;DHT22;59355;52.416;13.412;2022-07-04T08:07:38;21.30;99.90
2849;DHT22;59355;52.416;13.412;2022-07-04T08:10:05;21.40;99.90
2849;DHT22;59355;52.416;13.412;2022-07-04T08:12:31;21.30;99.90
2849;DHT22;59355;52.416;13.412;2022-07-04T08:14:57;21.20;99.90
2849;DHT22;59355;52.416;13.412;2022-07-04T08:17:24;21.00;99.90
2849;DHT22;59355;52.416;13.412;2022-07-04T08:19:50;20.90;99.90
2849;DHT22;59355;52.416;13.412;2022-07-04T08:22:16;21.00;99.90
2849;DHT22;59355;52.416;13.412;2022-07-04T08:24:43;21.00;99.90
2849;DHT22;59355;52.416;13.412;2022-07-04T08:27:10;21.10;99.90
2849;DHT22;59355;52.416;13.412;2022-07-04T08:29:36;21.20;99.90
2849;DHT22;59355;52.416;13.412;2022-07-04T08:32:02;21.30;99.90
2849;DHT22;59355;52.416;13.412;2022-07-04T08:34:29;21.20;99.90
2849;DHT22;59355;52.416;13.412;2022-07-04T08:36:55;21.00;99.90
2849;DHT22;59355;52.416;13.412;2022-07-04T08:39:21;20.90;99.90
2849;DHT22;59355;52.416;13.412;2022-07-04T08:41:49;20.90;99.90
2849;DHT22;59355;52.416;13.412;2022-07-04T08:44:18;20.80;99.90
2849;DHT22;59355;52.416;13.412;2022-07-04T08:46:45;20.60;99.90
2849;DHT22;59355;52.416;13.412;2022-07-04T08:49:21;20.50;99.90
2849;DHT22;59355;52.416;13.412;2022-07-04T08:51:56;20.50;99.90
2849;DHT22;59355;52.416;13.412;2022-07-04T08:54:25;20.50;99.90
2849;DHT22;59355;52.416;13.412;2022-07-04T08:57:10;20.60;99.90
2849;DHT22;59355;52.416;13.412;2022-07-04T08:59:55;20.60;99.90
2849;DHT22;59355;52.416;13.412;2022-07-04T09:02:22;20.80;99.90
2849;DHT22;59355;52.416;13.412;2022-07-04T09:04:49;20.90;99.90
2849;DHT22;59355;52.416;13.412;2022-07-04T09:07:15;21.00;99.90
2849;DHT22;59355;52.416;13.412;2022-07-04T09:09:44;21.20;99.90
2849;DHT22;59355;52.416;13.412;2022-07-04T09:12:11;21.30;99.90
2849;DHT22;59355;52.416;13.412;2022-07-04T09:14:38;21.50;99.90
2849;DHT22;59355;52.416;13.412;2022-07-04T09:17:05;21.70;99.90
2849;DHT22;59355;52.416;13.412;2022-07-04T09:19:32;21.80;99.90
2849;DHT22;59355;52.416;13.412;2022-07-04T09:22:08;21.70;99.90
2849;DHT22;59355;52.416;13.412;2022-07-04T09:24:45;21.70;99.90
2849;DHT22;59355;52.416;13.412;2022-07-04T09:27:12;21.50;99.90
2849;DHT22;59355;52.416;13.412;2022-07-04T09:29:52;21.70;99.90
2849;DHT22;59355;52.416;13.412;2022-07-04T09:35:12;21.80;99.90
2849;DHT22;59355;52.416;13.412;2022-07-04T09:37:43;21.80;99.90
2849;DHT22;59355;52.416;13.412;2022-07-04T09:40:34;21.80;99.90
2849;DHT22;59355;52.416;13.412;2022-07-04T09:43:20;22.10;99.90
2849;DHT22;59355;52.416;13.412;2022-07-04T09:46:00;22.10;86.20
2849;DHT22;59355;52.416;13.412;2022-07-04T09:48:47;22.00;88.80
2849;DHT22;59355;52.416;13.412;2022-07-04T09:51:13;22.10;99.90
2849;DHT22;59355;52.416;13.412;2022-07-04T09:53:39;22.30;92.50
2849;DHT22;59355;52.416;13.412;2022-07-04T09:56:05;22.20;91.80
2849;DHT22;59355;52.416;13.412;2022-07-04T09:58:31;22.30;94.00
2849;DHT22;59355;52.416;13.412;2022-07-04T10:00:59;22.30;97.60
2849;DHT22;59355;52.416;13.412;2022-07-04T10:03:27;22.60;99.90
2849;DHT22;59355;52.416;13.412;2022-07-04T10:06:13;22.80;95.40
2849;DHT22;59355;52.416;13.412;2022-07-04T10:08:42;22.70;90.00
2849;DHT22;59355;52.416;13.412;2022-07-04T10:11:09;22.90;84.20
2849;DHT22;59355;52.416;13.412;2022-07-04T10:13:37;22.90;73.20
2849;DHT22;59355;52.416;13.412;2022-07-04T10:16:03;22.90;68.20
2849;DHT22;59355;52.416;13.412;2022-07-04T10:18:29;23.00;71.80
2849;DHT22;59355;52.416;13.412;2022-07-04T10:20:56;23.10;73.30
2849;DHT22;59355;52.416;13.412;2022-07-04T10:23:23;23.10;72.70
2849;DHT22;59355;52.416;13.412;2022-07-04T10:25:52;23.20;70.60
2849;DHT22;59355;52.416;13.412;2022-07-04T10:28:20;23.20;71.50
2849;DHT22;59355;52.416;13.412;2022-07-04T10:30:54;23.50;72.60
2849;DHT22;59355;52.416;13.412;2022-07-04T10:33:26;23.80;71.10
2849;DHT22;59355;52.416;13.412;2022-07-04T10:35:55;23.80;68.70
2849;DHT22;59355;52.416;13.412;2022-07-04T10:38:29;23.90;68.00
2849;DHT22;59355;52.416;13.412;2022-07-04T10:41:08;23.90;70.70
2849;DHT22;59355;52.416;13.412;2022-07-04T10:49:02;23.60;67.60
2849;DHT22;59355;52.416;13.412;2022-07-04T10:51:42;23.20;66.70
2849;DHT22;59355;52.416;13.412;2022-07-04T10:54:32;23.00;68.10
2849;DHT22;59355;52.416;13.412;2022-07-04T10:57:12;22.90;68.30
2849;DHT22;59355;52.416;13.412;2022-07-04T10:59:40;22.70;68.10
2849;DHT22;59355;52.416;13.412;2022-07-04T11:18:08;23.70;66.40
2849;DHT22;59355;52.416;13.412;2022-07-04T11:20:35;23.70;66.00
2849;DHT22;59355;52.416;13.412;2022-07-04T11:23:10;24.00;65.60
2849;DHT22;59355;52.416;13.412;2022-07-04T11:25:38;24.20;65.20
2849;DHT22;59355;52.416;13.412;2022-07-04T11:30:51;24.50;64.70
2849;DHT22;59355;52.416;13.412;2022-07-04T11:33:25;24.60;63.10
2849;DHT22;59355;52.416;13.412;2022-07-04T11:36:15;24.60;64.80
2849;DHT22;59355;52.416;13.412;2022-07-04T11:38:44;24.50;63.60
2849;DHT22;59355;52.416;13.412;2022-07-04T11:41:10;24.40;62.20
2849;DHT22;59355;52.416;13.412;2022-07-04T11:43:55;24.40;63.10
2849;DHT22;59355;52.416;13.412;2022-07-04T11:46:39;24.30;61.90
2849;DHT22;59355;52.416;13.412;2022-07-04T11:49:10;23.90;62.50
2849;DHT22;59355;52.416;13.412;2022-07-04T11:51:46;23.70;63.30
2849;DHT22;59355;52.416;13.412;2022-07-04T11:54:12;23.70;64.20
2849;DHT22;59355;52.416;13.412;2022-07-04T11:56:39;23.90;64.20
2849;DHT22;59355;52.416;13.412;2022-07-04T11:59:15;23.90;63.30
2849;DHT22;59355;52.416;13.412;2022-07-04T12:01:42;23.90;63.50
2849;DHT22;59355;52.416;13.412;2022-07-04T12:04:16;23.80;64.10
2849;DHT22;59355;52.416;13.412;2022-07-04T12:06:47;24.20;65.00
2849;DHT22;59355;52.416;13.412;2022-07-04T12:09:15;24.60;63.30
2849;DHT22;59355;52.416;13.412;2022-07-04T12:14:20;24.50;60.80
2849;DHT22;59355;52.416;13.412;2022-07-04T12:16:46;24.70;61.00
2849;DHT22;59355;52.416;13.412;2022-07-04T12:19:13;24.70;59.50
2849;DHT22;59355;52.416;13.412;2022-07-04T12:21:39;24.60;60.80
2849;DHT22;59355;52.416;13.412;2022-07-04T12:24:07;24.40;60.80
2849;DHT22;59355;52.416;13.412;2022-07-04T12:26:41;24.30;61.10
2849;DHT22;59355;52.416;13.412;2022-07-04T12:29:09;24.20;60.40
2849;DHT22;59355;52.416;13.412;2022-07-04T12:31:43;24.30;60.10
2849;DHT22;59355;52.416;13.412;2022-07-04T12:34:16;24.60;60.90
2849;DHT22;59355;52.416;13.412;2022-07-04T12:36:53;24.60;59.90
2849;DHT22;59355;52.416;13.412;2022-07-04T12:39:29;24.70;59.00
2849;DHT22;59355;52.416;13.412;2022-07-04T12:44:31;24.80;57.90
2849;DHT22;59355;52.416;13.412;2022-07-04T12:46:58;24.90;58.00
2849;DHT22;59355;52.416;13.412;2022-07-04T12:49:24;24.70;57.60
2849;DHT22;59355;52.416;13.412;2022-07-04T12:51:50;24.50;58.20
2849;DHT22;59355;52.416;13.412;2022-07-04T12:54:16;24.60;58.10
2849;DHT22;59355;52.416;13.412;2022-07-04T12:56:45;24.70;57.10
2849;DHT22;59355;52.416;13.412;2022-07-04T12:59:13;24.20;57.40
2849;DHT22;59355;52.416;13.412;2022-07-04T13:01:41;24.30;57.20
2849;DHT22;59355;52.416;13.412;2022-07-04T13:04:08;24.30;56.00
2849;DHT22;59355;52.416;13.412;2022-07-04T13:06:34;24.60;57.20
2849;DHT22;59355;52.416;13.412;2022-07-04T13:09:01;25.00;56.20
2849;DHT22;59355;52.416;13.412;2022-07-04T13:11:28;24.90;55.20
2849;DHT22;59355;52.416;13.412;2022-07-04T13:14:13;25.00;55.20
2849;DHT22;59355;52.416;13.412;2022-07-04T13:16:39;25.30;54.10
2849;DHT22;59355;52.416;13.412;2022-07-04T13:19:05;25.20;54.10
2849;DHT22;59355;52.416;13.412;2022-07-04T13:21:31;25.40;54.90
2849;DHT22;59355;52.416;13.412;2022-07-04T13:23:57;25.50;53.00
2849;DHT22;59355;52.416;13.412;2022-07-04T13:26:23;25.30;53.00
2849;DHT22;59355;52.416;13.412;2022-07-04T13:28:50;25.30;54.40
2849;DHT22;59355;52.416;13.412;2022-07-04T13:31:16;25.40;54.60
2849;DHT22;59355;52.416;13.412;2022-07-04T13:33:42;25.60;53.00
2849;DHT22;59355;52.416;13.412;2022-07-04T13:36:08;25.30;52.40
2849;DHT22;59355;52.416;13.412;2022-07-04T13:38:34;25.20;52.90
2849;DHT22;59355;52.416;13.412;2022-07-04T13:41:00;25.40;52.60
2849;DHT22;59355;52.416;13.412;2022-07-04T13:43:28;25.50;52.60
2849;DHT22;59355;52.416;13.412;2022-07-04T13:45:55;25.80;52.30
2849;DHT22;59355;52.416;13.412;2022-07-04T13:48:21;25.70;51.50
2849;DHT22;59355;52.416;13.412;2022-07-04T13:50:47;26.10;51.30
2849;DHT22;59355;52.416;13.412;2022-07-04T13:53:13;26.30;50.10
2849;DHT22;59355;52.416;13.412;2022-07-04T13:55:39;26.10;50.70
2849;DHT22;59355;52.416;13.412;2022-07-04T13:58:07;26.40;51.20
2849;DHT22;59355;52.416;13.412;2022-07-04T14:00:35;26.20;49.50
2849;DHT22;59355;52.416;13.412;2022-07-04T14:03:01;25.80;50.10
2849;DHT22;59355;52.416;13.412;2022-07-04T14:05:28;26.00;50.20
2849;DHT22;59355;52.416;13.412;2022-07-04T14:07:54;26.60;50.90
2849;DHT22;59355;52.416;13.412;2022-07-04T14:10:21;26.90;48.20
2849;DHT22;59355;52.416;13.412;2022-07-04T14:12:47;26.90;48.30
2849;DHT22;59355;52.416;13.412;2022-07-04T14:15:13;26.90;48.10
2849;DHT22;59355;52.416;13.412;2022-07-04T14:17:39;26.60;47.70
2849;DHT22;59355;52.416;13.412;2022-07-04T14:20:07;27.20;47.70
2849;DHT22;59355;52.416;13.412;2022-07-04T14:22:34;28.20;47.50
2849;DHT22;59355;52.416;13.412;2022-07-04T14:25:00;29.40;45.60
2849;DHT22;59355;52.416;13.412;2022-07-04T14:27:27;30.10;44.90
2849;DHT22;59355;52.416;13.412;2022-07-04T14:29:53;30.80;42.90
2849;DHT22;59355;52.416;13.412;2022-07-04T14:32:19;31.60;43.20
2849;DHT22;59355;52.416;13.412;2022-07-04T14:34:45;31.70;42.80
2849;DHT22;59355;52.416;13.412;2022-07-04T14:37:11;32.30;40.70
2849;DHT22;59355;52.416;13.412;2022-07-04T14:39:37;32.50;40.20
2849;DHT22;59355;52.416;13.412;2022-07-04T14:42:03;32.40;39.90
2849;DHT22;59355;52.416;13.412;2022-07-04T14:44:29;31.90;39.70
2849;DHT22;59355;52.416;13.412;2022-07-04T14:46:56;31.40;39.90
2849;DHT22;59355;52.416;13.412;2022-07-04T14:49:22;30.60;40.60
2849;DHT22;59355;52.416;13.412;2022-07-04T14:51:48;31.20;40.50
2849;DHT22;59355;52.416;13.412;2022-07-04T14:54:14;31.60;40.30
2849;DHT22;59355;52.416;13.412;2022-07-04T14:56:40;32.10;39.90
2849;DHT22;59355;52.416;13.412;2022-07-04T14:59:06;32.00;39.30
2849;DHT22;59355;52.416;13.412;2022-07-04T15:01:32;32.60;39.70
2849;DHT22;59355;52.416;13.412;2022-07-04T15:03:59;32.80;38.90
2849;DHT22;59355;52.416;13.412;2022-07-04T15:06:25;33.50;38.40
2849;DHT22;59355;52.416;13.412;2022-07-04T15:08:51;33.10;38.20
2849;DHT22;59355;52.416;13.412;2022-07-04T15:11:18;33.60;38.20
2849;DHT22;59355;52.416;13.412;2022-07-04T15:13:44;33.80;37.40
2849;DHT22;59355;52.416;13.412;2022-07-04T15:16:10;33.80;37.40
2849;DHT22;59355;52.416;13.412;2022-07-04T15:18:37;34.20;36.50
2849;DHT22;59355;52.416;13.412;2022-07-04T15:21:03;33.50;37.10
2849;DHT22;59355;52.416;13.412;2022-07-04T15:23:47;34.20;36.10
2849;DHT22;59355;52.416;13.412;2022-07-04T15:26:32;32.60;36.80
2849;DHT22;59355;52.416;13.412;2022-07-04T15:29:00;32.60;37.00
2849;DHT22;59355;52.416;13.412;2022-07-04T15:31:26;31.90;37.00
2849;DHT22;59355;52.416;13.412;2022-07-04T15:33:52;32.20;37.70
2849;DHT22;59355;52.416;13.412;2022-07-04T15:36:18;31.90;37.40
2849;DHT22;59355;52.416;13.412;2022-07-04T15:38:44;32.60;38.00
2849;DHT22;59355;52.416;13.412;2022-07-04T15:41:10;32.60;37.70
2849;DHT22;59355;52.416;13.412;2022-07-04T15:43:41;33.00;37.10
2849;DHT22;59355;52.416;13.412;2022-07-04T15:46:08;33.40;36.40
2849;DHT22;59355;52.416;13.412;2022-07-04T15:48:34;32.90;36.50
2849;DHT22;59355;52.416;13.412;2022-07-04T15:51:00;33.10;36.60
2849;DHT22;59355;52.416;13.412;2022-07-04T15:53:26;33.10;36.50
2849;DHT22;59355;52.416;13.412;2022-07-04T15:55:52;32.90;36.20
2849;DHT22;59355;52.416;13.412;2022-07-04T15:58:18;32.90;37.00
2849;DHT22;59355;52.416;13.412;2022-07-04T16:00:44;33.70;36.70
2849;DHT22;59355;52.416;13.412;2022-07-04T16:03:10;34.20;35.90
2849;DHT22;59355;52.416;13.412;2022-07-04T16:05:39;34.40;35.10